Time;durP1;ratioP1;P1;durP2;ratioP2;P2;SDS_P1;SDS_P2;PMS_P1;PMS_P2;Temp;Humidity;BMP_temperature;BMP_pressure;BME280_temperature;BME280_humidity;BME280_pressure;Samples;Min_cycle;Max_cycle;Signal;HPM_P1;HPM_P2
2023/02/25 00:02:25;;;;;;;19.60;11.10;;;;;;;1.63;77.38;100322.33;105605;1260;60548;-86
2023/02/25 00:04:54;;;;;;;18.80;11.10;;;;;;;1.64;77.83;100314.90;105558;1255;61350;-86
2023/02/25 00:07:42;;;;;;;18.20;11.10;;;;;;;1.62;78.02;100303.08;105342;1255;606874;-85
2023/02/25 00:11:52;;;;;;;15.90;9.70;;;;;;;1.63;78.93;100295.11;102835;1294;600041;-84
2023/02/25 00:14:21;;;;;;;20.60;11.40;;;;;;;1.61;79.39;100290.52;104984;1271;60904;-86
2023/02/25 00:16:49;;;;;;;16.00;9.30;;;;;;;1.62;80.17;100286.72;104839;1266;60340;-85
2023/02/25 00:19:18;;;;;;;15.70;9.20;;;;;;;1.62;81.09;100275.17;105115;1265;73180;-86
2023/02/25 00:21:47;;;;;;;15.60;9.70;;;;;;;1.64;81.79;100280.09;105978;1257;64650;-87
2023/02/25 00:24:16;;;;;;;14.20;9.50;;;;;;;1.65;82.96;100270.75;105835;1259;72701;-86
2023/02/25 00:26:44;;;;;;;15.80;10.10;;;;;;;1.66;83.40;100268.15;105336;1256;59621;-86
2023/02/25 00:29:14;;;;;;;14.10;9.30;;;;;;;1.65;83.57;100265.77;106253;1255;60419;-86
2023/02/25 00:31:43;;;;;;;17.30;9.20;;;;;;;1.63;83.94;100261.88;106454;1251;73200;-84
2023/02/25 00:34:13;;;;;;;14.80;9.20;;;;;;;1.60;84.50;100255.92;106538;1251;63720;-82
2023/02/25 00:36:41;;;;;;;16.30;9.40;;;;;;;1.57;84.88;100256.71;108252;1251;72353;-84
2023/02/25 00:39:14;;;;;;;16.30;9.40;;;;;;;1.55;85.58;100252.11;107115;1255;61140;-84
2023/02/25 00:41:42;;;;;;;13.90;8.60;;;;;;;1.53;86.06;100245.63;106457;1255;60995;-86
2023/02/25 00:44:11;;;;;;;16.00;9.80;;;;;;;1.51;86.34;100243.45;106680;1251;72435;-85
2023/02/25 00:46:40;;;;;;;15.10;8.90;;;;;;;1.50;86.51;100238.83;106691;1251;64332;-84
2023/02/25 00:49:09;;;;;;;15.60;10.00;;;;;;;1.50;86.57;100232.99;106632;1255;72716;-85
2023/02/25 00:51:40;;;;;;;15.90;10.30;;;;;;;1.50;86.80;100232.64;106591;1255;62194;-86
2023/02/25 00:54:08;;;;;;;14.60;9.30;;;;;;;1.51;86.80;100230.52;106349;1251;60041;-84
2023/02/25 00:56:37;;;;;;;16.40;9.00;;;;;;;1.50;87.11;100222.98;106490;1255;72930;-84
2023/02/25 00:59:05;;;;;;;12.00;8.30;;;;;;;1.50;87.40;100224.02;106272;1255;65370;-85
2023/02/25 01:01:36;;;;;;;10.90;8.30;;;;;;;1.51;87.65;100221.21;109780;1251;72408;-83
2023/02/25 01:04:05;;;;;;;13.80;8.70;;;;;;;1.55;87.82;100219.73;109177;1251;59588;-84
2023/02/25 01:06:37;;;;;;;15.10;10.40;;;;;;;1.57;87.76;100215.34;107192;1251;61292;-84
2023/02/25 01:09:12;;;;;;;14.40;9.10;;;;;;;1.60;87.72;100218.36;107174;1251;74070;-85
2023/02/25 01:11:44;;;;;;;11.90;9.50;;;;;;;1.60;87.78;100218.37;106683;1251;64876;-84
2023/02/25 01:14:22;;;;;;;11.20;7.60;;;;;;;1.61;87.91;100214.05;106710;1251;73513;-85
2023/02/25 01:16:51;;;;;;;11.60;7.50;;;;;;;1.57;88.36;100205.02;106584;1252;62229;-85
2023/02/25 01:19:24;;;;;;;11.90;7.90;;;;;;;1.53;88.84;100200.31;106635;1251;61051;-87
2023/02/25 01:21:55;;;;;;;12.10;8.90;;;;;;;1.53;89.18;100200.48;106608;1251;72993;-85
2023/02/25 01:24:29;;;;;;;14.50;8.70;;;;;;;1.52;89.49;100195.35;106677;1257;63927;-85
2023/02/25 01:27:00;;;;;;;16.30;9.70;;;;;;;1.51;89.55;100189.86;106819;1255;72765;-87
2023/02/25 01:29:33;;;;;;;13.70;9.30;;;;;;;1.50;89.75;100181.95;106303;1256;60447;-87
2023/02/25 01:32:02;;;;;;;17.30;9.90;;;;;;;1.49;89.81;100184.08;106573;1251;61433;-85
2023/02/25 01:34:32;;;;;;;10.80;8.30;;;;;;;1.49;89.89;100182.88;107801;1251;74027;-85
2023/02/25 01:37:03;;;;;;;10.60;7.60;;;;;;;1.48;90.18;100179.29;107541;1252;63760;-84
2023/02/25 01:39:31;;;;;;;10.70;8.30;;;;;;;1.48;90.48;100175.34;106730;1251;73777;-87
2023/02/25 01:42:02;;;;;;;11.80;9.40;;;;;;;1.48;90.79;100172.73;106760;1251;59643;-89
2023/02/25 01:44:34;;;;;;;10.60;8.00;;;;;;;1.48;91.05;100165.33;106838;1251;60082;-86
2023/02/25 01:47:19;;;;;;;11.50;7.60;;;;;;;1.50;91.21;100167.70;106502;1251;73737;-87
2023/02/25 01:49:48;;;;;;;13.90;9.60;;;;;;;1.51;91.30;100172.65;106529;1255;64769;-88
2023/02/25 01:52:22;;;;;;;11.30;8.10;;;;;;;1.50;91.50;100169.38;106498;1257;73659;-85
2023/02/25 01:54:52;;;;;;;;;;;;;;;1.49;91.48;100164.26;106653;1251;62172;-85
2023/02/25 01:57:21;;;;;;;10.30;7.20;;;;;;;1.47;91.78;100165.88;106369;1257;61200;-84
2023/02/25 01:59:49;;;;;;;10.40;6.80;;;;;;;1.49;92.20;100164.27;107524;1251;73924;-84
2023/02/25 02:02:22;;;;;;;8.90;6.60;;;;;;;1.53;92.33;100162.06;106873;1256;62778;-87
2023/02/25 02:04:51;;;;;;;11.00;6.70;;;;;;;1.57;92.59;100154.90;106460;1251;73652;-87
2023/02/25 02:07:20;;;;;;;12.40;7.20;;;;;;;1.60;92.58;100153.44;106635;1256;60353;-86
2023/02/25 02:09:55;;;;;;;13.90;7.60;;;;;;;1.62;92.47;100153.20;106359;1251;61912;-88
2023/02/25 02:12:26;;;;;;;8.10;6.20;;;;;;;1.64;92.41;100154.69;106291;1253;74146;-88
2023/02/25 02:14:54;;;;;;;7.70;6.30;;;;;;;1.64;92.28;100152.60;106333;1257;64812;-89
2023/02/25 02:17:32;;;;;;;10.90;7.20;;;;;;;1.63;92.50;100151.24;106583;1251;73345;-87
2023/02/25 02:20:10;;;;;;;12.10;7.10;;;;;;;1.64;92.71;100155.02;106704;1253;62420;-86
2023/02/25 02:22:58;;;;;;;8.00;6.00;;;;;;;1.66;92.91;100154.94;106578;1253;61063;-87
2023/02/25 02:25:50;;;;;;;9.40;6.30;;;;;;;1.65;93.04;100152.21;106513;1251;74004;-88
2023/02/25 02:28:22;;;;;;;8.60;7.10;;;;;;;1.66;93.15;100143.41;106997;1251;65961;-84
2023/02/25 02:31:14;;;;;;;10.70;7.00;;;;;;;1.65;93.22;100141.88;106385;1251;73350;-86
2023/02/25 02:34:17;;;;;;;14.30;9.20;;;;;;;1.65;93.24;100139.99;106397;1251;61882;-84
2023/02/25 02:37:01;;;;;;;12.10;7.00;;;;;;;1.64;93.51;100137.94;106633;1251;60996;-86
2023/02/25 02:39:37;;;;;;;7.30;6.40;;;;;;;1.63;93.70;100139.38;106696;1251;72004;-85
2023/02/25 02:42:13;;;;;;;9.30;6.70;;;;;;;1.63;94.02;100129.21;106804;1251;63527;-85
2023/02/25 02:44:44;;;;;;;;;;;;;;;1.65;94.34;100128.98;106405;1251;72654;-86
2023/02/25 02:47:33;;;;;;;8.60;7.30;;;;;;;1.66;94.22;100121.34;106322;1258;60476;-86
2023/02/25 02:50:14;;;;;;;11.40;8.20;;;;;;;1.67;94.38;100118.23;106607;1251;61038;-87
2023/02/25 02:52:47;;;;;;;13.30;7.10;;;;;;;1.70;94.37;100115.89;106639;1251;74212;-85
2023/02/25 02:55:29;;;;;;;8.60;6.10;;;;;;;1.72;94.59;100117.73;106440;1253;64362;-85
2023/02/25 02:58:02;;;;;;;10.80;7.90;;;;;;;1.73;94.85;100117.35;106336;1251;73788;-83
2023/02/25 03:00:35;;;;;;;12.70;8.30;;;;;;;1.75;94.98;100114.70;106673;1251;59670;-87
2023/02/25 03:03:13;;;;;;;10.90;7.60;;;;;;;1.78;95.10;100114.11;105951;1253;61497;-86
2023/02/25 03:05:44;;;;;;;10.80;8.00;;;;;;;1.80;95.18;100109.55;106076;1251;73682;-85
2023/02/25 03:08:16;;;;;;;11.00;7.50;;;;;;;1.82;95.16;100108.27;106161;1255;63758;-87
2023/02/25 03:10:46;;;;;;;11.40;8.70;;;;;;;1.84;95.00;100106.48;107245;1255;72494;-88
2023/02/25 03:13:14;;;;;;;8.10;5.80;;;;;;;1.85;95.02;100101.45;106150;1251;60804;-85
2023/02/25 03:15:43;;;;;;;12.40;7.40;;;;;;;1.85;95.15;100098.69;106222;1251;60045;-87
2023/02/25 03:18:34;;;;;;;8.30;6.50;;;;;;;1.87;95.25;100097.27;106016;1251;74219;-87
2023/02/25 03:21:12;;;;;;;8.30;6.30;;;;;;;1.88;95.17;100085.33;105926;1255;64783;-87
2023/02/25 03:23:42;;;;;;;8.50;6.60;;;;;;;1.89;95.41;100084.97;106362;1252;72615;-85
2023/02/25 03:26:13;;;;;;;9.90;6.90;;;;;;;1.89;95.27;100085.32;106495;1251;60421;-84
2023/02/25 03:28:42;;;;;;;9.70;6.50;;;;;;;1.90;95.00;100077.86;106042;1251;60640;-85
2023/02/25 03:31:26;;;;;;;7.30;6.30;;;;;;;1.89;94.99;100074.11;105974;1255;74100;-87
2023/02/25 03:34:13;;;;;;;9.40;7.00;;;;;;;1.87;95.24;100071.90;106068;1256;64940;-82
2023/02/25 03:36:48;;;;;;;7.40;6.20;;;;;;;1.88;95.11;100076.20;106009;1255;73682;-82
2023/02/25 03:39:19;;;;;;;9.10;6.80;;;;;;;1.90;95.29;100074.10;105960;1255;60564;-84
2023/02/25 03:41:51;;;;;;;9.70;6.80;;;;;;;1.90;95.22;100068.05;106010;1251;61038;-85
2023/02/25 03:44:30;;;;;;;8.70;6.40;;;;;;;1.89;95.09;100060.66;106130;1255;74408;-83
2023/02/25 03:46:59;;;;;;;11.20;7.20;;;;;;;1.89;95.20;100056.88;106041;1253;63465;-83
2023/02/25 03:49:32;;;;;;;10.10;5.90;;;;;;;1.89;95.13;100053.25;105770;1257;74278;-85
2023/02/25 03:52:01;;;;;;;7.60;5.90;;;;;;;1.90;95.33;100056.34;105896;1257;62090;-84
2023/02/25 03:54:30;;;;;;;8.80;6.10;;;;;;;1.91;95.41;100051.45;105867;1251;60949;-84
2023/02/25 03:56:58;;;;;;;10.40;6.30;;;;;;;1.91;95.34;100045.43;105831;1257;72533;-87
2023/02/25 03:59:27;;;;;;;9.20;6.80;;;;;;;1.92;95.32;100047.62;105853;1251;62566;-84
2023/02/25 04:01:55;;;;;;;14.80;7.10;;;;;;;1.92;95.34;100046.10;105797;1251;73664;-86
2023/02/25 04:04:24;;;;;;;8.40;6.80;;;;;;;1.92;95.30;100041.25;105712;1258;61204;-86
2023/02/25 04:06:53;;;;;;;9.80;6.40;;;;;;;1.90;95.29;100031.83;105897;1251;61387;-85
2023/02/25 04:09:25;;;;;;;10.00;6.10;;;;;;;1.90;95.52;100034.42;105897;1251;74003;-83
2023/02/25 04:11:55;;;;;;;8.10;6.10;;;;;;;1.90;95.61;100031.66;105848;1257;65831;-86
2023/02/25 04:14:24;;;;;;;12.70;7.30;;;;;;;1.91;95.71;100026.30;105895;1253;72648;-85
2023/02/25 04:16:54;;;;;;;10.60;7.10;;;;;;;1.92;95.72;100024.71;106523;1251;60490;-84
2023/02/25 04:19:22;;;;;;;12.70;6.80;;;;;;;1.93;95.62;100022.27;109709;1251;60333;-83
2023/02/25 04:21:50;;;;;;;10.30;6.90;;;;;;;1.96;95.65;100021.29;109048;1251;72919;-83
2023/02/25 04:24:19;;;;;;;9.80;6.40;;;;;;;1.97;95.65;100022.98;106330;1255;65074;-84
2023/02/25 04:26:48;;;;;;;8.20;5.60;;;;;;;1.99;95.78;100017.23;106241;1251;72636;-85
2023/02/25 04:29:20;;;;;;;9.80;7.30;;;;;;;2.02;95.95;100017.30;106327;1255;60599;-85
2023/02/25 04:31:49;;;;;;;14.90;7.30;;;;;;;2.03;96.19;100016.73;106185;1252;61254;-85
2023/02/25 04:34:18;;;;;;;11.70;7.10;;;;;;;2.05;96.06;100017.19;106383;1251;73775;-82
2023/02/25 04:36:47;;;;;;;12.00;7.20;;;;;;;2.06;96.15;100018.34;106020;1255;63781;-85
2023/02/25 04:39:16;;;;;;;10.20;7.50;;;;;;;2.09;96.02;100020.33;106019;1251;72433;-85
2023/02/25 04:41:45;;;;;;;7.60;6.20;;;;;;;2.11;96.07;100018.71;105844;1255;60431;-86
2023/02/25 04:44:16;;;;;;;9.70;7.00;;;;;;;2.12;96.22;100016.77;106030;1251;61481;-85
2023/02/25 04:46:50;;;;;;;8.80;6.60;;;;;;;2.13;96.40;100013.97;106129;1253;74776;-84
2023/02/25 04:49:20;;;;;;;8.30;6.60;;;;;;;2.15;96.57;100012.34;106938;1255;64663;-80
2023/02/25 04:51:50;;;;;;;11.10;7.60;;;;;;;2.18;96.80;100011.74;106497;1255;73573;-84
2023/02/25 04:54:19;;;;;;;12.60;6.60;;;;;;;2.18;96.79;100011.40;106084;1251;61100;-86
2023/02/25 04:56:47;;;;;;;6.50;5.40;;;;;;;2.20;96.82;100008.91;106110;1255;60484;-85
2023/02/25 04:59:16;;;;;;;8.40;6.40;;;;;;;2.19;97.08;100013.41;106126;1253;74899;-85
2023/02/25 05:01:45;;;;;;;7.80;6.00;;;;;;;2.20;97.36;100007.85;106165;1255;65007;-84
2023/02/25 05:04:16;;;;;;;10.40;6.90;;;;;;;2.24;97.58;100009.63;106254;1251;73322;-85
2023/02/25 05:06:44;;;;;;;9.30;7.30;;;;;;;2.29;97.55;100011.34;106086;1257;61316;-88
2023/02/25 05:09:12;;;;;;;9.70;7.50;;;;;;;2.33;97.53;100009.49;106150;1251;61333;-86
2023/02/25 05:11:42;;;;;;;12.70;7.30;;;;;;;2.34;97.48;100014.13;106117;1251;75039;-86
2023/02/25 05:14:11;;;;;;;11.80;7.80;;;;;;;2.35;97.08;100010.79;106198;1251;65172;-85
2023/02/25 05:16:39;;;;;;;12.00;7.20;;;;;;;2.37;96.96;100007.45;106243;1253;72614;-86
2023/02/25 05:19:07;;;;;;;12.20;8.00;;;;;;;2.38;97.02;100008.10;106139;1255;62188;-87
2023/02/25 05:21:36;;;;;;;14.60;6.40;;;;;;;2.39;97.08;100012.19;106029;1251;61338;-88
2023/02/25 05:24:05;;;;;;;12.40;7.00;;;;;;;2.41;96.91;100007.13;106119;1252;74791;-85
2023/02/25 05:26:34;;;;;;;9.30;7.10;;;;;;;2.42;97.07;100004.67;107102;1252;64542;-85
2023/02/25 05:29:03;;;;;;;9.40;7.80;;;;;;;2.45;97.08;100001.48;106173;1254;74437;-88
2023/02/25 05:31:31;;;;;;;9.80;7.10;;;;;;;2.47;96.95;99999.11;106273;1255;60595;-84
2023/02/25 05:34:01;;;;;;;11.80;7.60;;;;;;;2.51;96.53;99997.62;106450;1254;60486;-86
2023/02/25 05:36:30;;;;;;;11.20;7.30;;;;;;;2.54;96.36;99999.05;106160;1253;75006;-86
2023/02/25 05:39:02;;;;;;;10.00;6.30;;;;;;;2.57;96.10;99996.17;106251;1255;64704;-85
2023/02/25 05:41:32;;;;;;;9.20;7.40;;;;;;;2.60;95.91;99995.20;106148;1252;72637;-85
2023/02/25 05:44:00;;;;;;;8.90;6.70;;;;;;;2.62;95.46;99994.95;106254;1253;60523;-86
2023/02/25 05:46:29;;;;;;;13.30;7.80;;;;;;;2.68;95.13;99995.09;106320;1253;61003;-86
2023/02/25 05:48:57;;;;;;;17.10;8.90;;;;;;;2.70;94.46;99994.30;106301;1255;74537;-85
2023/02/25 05:51:26;;;;;;;12.70;8.70;;;;;;;2.71;93.58;99995.66;106384;1252;63611;-86
2023/02/25 05:53:57;;;;;;;15.00;7.70;;;;;;;2.72;92.97;99992.17;108203;1251;73736;-85
2023/02/25 05:56:27;;;;;;;12.60;7.90;;;;;;;2.73;92.38;99989.73;109676;1251;60849;-87
2023/02/25 05:58:59;;;;;;;11.50;7.90;;;;;;;2.72;92.21;99994.08;109782;1253;60918;-86
2023/02/25 06:01:28;;;;;;;11.90;7.90;;;;;;;2.73;92.18;99994.21;109769;1252;72483;-84
2023/02/25 06:04:02;;;;;;;9.70;7.30;;;;;;;2.76;91.81;99994.11;109792;1252;63565;-88
2023/02/25 06:06:31;;;;;;;17.70;7.70;;;;;;;2.77;91.40;99987.66;109741;1252;72328;-86
2023/02/25 06:09:00;;;;;;;15.00;9.50;;;;;;;2.79;90.95;99980.85;109793;1253;59650;-87
2023/02/25 06:11:29;;;;;;;12.10;8.40;;;;;;;2.81;90.58;99981.66;109723;1252;59033;-86
2023/02/25 06:13:57;;;;;;;12.20;8.90;;;;;;;2.82;90.07;99976.59;109802;1252;73664;-85
2023/02/25 06:16:30;;;;;;;13.20;8.40;;;;;;;2.86;90.03;99973.33;109794;1251;62870;-85
2023/02/25 06:19:01;;;;;;;13.00;8.60;;;;;;;2.89;89.86;99969.09;109807;1253;72806;-87
2023/02/25 06:21:32;;;;;;;11.30;8.70;;;;;;;2.92;89.86;99966.20;109793;1251;60149;-84
2023/02/25 06:24:01;;;;;;;11.60;7.70;;;;;;;2.95;89.38;99959.36;109840;1253;60124;-86
2023/02/25 06:26:40;;;;;;;11.90;7.00;;;;;;;2.97;89.02;99959.27;109785;1251;74008;-85
2023/02/25 06:29:10;;;;;;;9.00;7.40;;;;;;;2.95;88.82;99955.04;108334;1253;63560;-85
2023/02/25 06:31:39;;;;;;;14.00;7.90;;;;;;;2.94;88.73;99950.08;106095;1253;73742;-86
2023/02/25 06:34:07;;;;;;;11.50;7.20;;;;;;;2.94;88.90;99951.83;106029;1255;61330;-87
2023/02/25 06:36:36;;;;;;;11.00;7.30;;;;;;;2.95;88.89;99945.89;105946;1253;61290;-86
2023/02/25 06:39:04;;;;;;;12.00;8.50;;;;;;;2.98;89.17;99947.69;105882;1253;74533;-85
2023/02/25 06:41:32;;;;;;;12.70;9.00;;;;;;;3.00;88.85;99943.61;106411;1252;65278;-85
2023/02/25 06:44:03;;;;;;;13.90;9.00;;;;;;;2.99;88.50;99940.05;106217;1256;73661;-87
2023/02/25 06:46:32;;;;;;;16.40;9.80;;;;;;;2.97;88.56;99940.44;105966;1253;60602;-87
2023/02/25 06:49:02;;;;;;;11.70;9.10;;;;;;;2.98;88.67;99939.04;106053;1254;61610;-86
2023/02/25 06:51:31;;;;;;;14.90;9.50;;;;;;;3.00;88.50;99930.83;106009;1255;75090;-89
2023/02/25 06:54:04;;;;;;;17.40;10.20;;;;;;;3.02;88.41;99930.59;105938;1253;64908;-83
2023/02/25 06:56:33;;;;;;;16.10;9.80;;;;;;;3.03;88.11;99927.80;105948;1253;73611;-84
2023/02/25 06:59:02;;;;;;;13.20;9.60;;;;;;;3.03;87.98;99925.37;106020;1253;61409;-87
2023/02/25 07:01:32;;;;;;;9.90;7.90;;;;;;;3.05;87.81;99920.44;106102;1254;61561;-86
2023/02/25 07:04:00;;;;;;;13.80;8.40;;;;;;;3.06;87.49;99922.64;105874;1257;74817;-87
2023/02/25 07:06:29;;;;;;;14.30;9.00;;;;;;;3.04;87.28;99918.26;106005;1255;63708;-87
2023/02/25 07:08:58;;;;;;;13.80;9.40;;;;;;;3.03;87.31;99917.06;105964;1253;73664;-86
2023/02/25 07:11:29;;;;;;;11.00;7.90;;;;;;;3.06;87.30;99915.21;105982;1253;61261;-84
2023/02/25 07:13:58;;;;;;;11.40;9.00;;;;;;;3.08;87.04;99911.69;106277;1251;61241;-87
2023/02/25 07:16:28;;;;;;;10.40;6.40;;;;;;;3.11;87.15;99908.30;106726;1255;74176;-87
2023/02/25 07:19:04;;;;;;;13.20;7.60;;;;;;;3.16;86.99;99907.92;105958;1257;64672;-88
2023/02/25 07:21:32;;;;;;;12.30;8.00;;;;;;;3.18;86.36;99903.70;106143;1253;73735;-84
2023/02/25 07:24:01;;;;;;;14.30;8.90;;;;;;;3.18;85.89;99906.98;106503;1255;60385;-83
2023/02/25 07:26:29;;;;;;;11.20;6.90;;;;;;;3.18;85.82;99902.65;106619;1252;60544;-86
2023/02/25 07:28:58;;;;;;;12.70;7.80;;;;;;;3.20;85.57;99898.62;106177;1255;74821;-86
2023/02/25 07:31:30;;;;;;;10.30;7.70;;;;;;;3.21;85.70;99898.20;106295;1253;62761;-86
2023/02/25 07:34:02;;;;;;;12.30;7.70;;;;;;;3.25;86.01;99897.87;107969;1252;73705;-85
2023/02/25 07:36:36;;;;;;;13.20;8.70;;;;;;;3.29;85.59;99896.33;109718;1251;59707;-85
2023/02/25 07:39:08;;;;;;;10.80;7.60;;;;;;;3.34;85.72;99894.05;108043;1251;60066;-86
2023/02/25 07:41:38;;;;;;;12.40;6.80;;;;;;;3.39;85.59;99892.96;106716;1253;73800;-87
2023/02/25 07:44:12;;;;;;;13.80;8.10;;;;;;;3.43;85.29;99890.73;106346;1254;63605;-87
2023/02/25 07:46:40;;;;;;;10.80;7.00;;;;;;;3.49;85.40;99897.39;106503;1251;72866;-85
2023/02/25 07:49:09;;;;;;;14.20;8.00;;;;;;;3.55;85.29;99893.69;107124;1252;62380;-86
2023/02/25 07:51:38;;;;;;;14.00;7.80;;;;;;;3.63;85.31;99888.33;109486;1251;60243;-85
2023/02/25 07:54:07;;;;;;;11.60;7.60;;;;;;;3.69;85.10;99885.11;109535;1252;73467;-87
2023/02/25 07:56:39;;;;;;;13.40;7.60;;;;;;;3.79;84.97;99879.52;109602;1251;63865;-86
2023/02/25 07:59:10;;;;;;;16.50;10.00;;;;;;;3.87;84.90;99878.11;109475;1252;72670;-84
2023/02/25 08:01:38;;;;;;;17.40;8.50;;;;;;;3.95;84.67;99876.05;109538;1252;59208;-85
2023/02/25 08:04:09;;;;;;;10.00;6.50;;;;;;;4.04;84.30;99876.34;109584;1251;62165;-86
2023/02/25 08:06:42;;;;;;;12.30;7.20;;;;;;;4.13;83.94;99868.14;109508;1253;73784;-86
2023/02/25 08:09:18;;;;;;;11.90;6.70;;;;;;;4.19;83.74;99872.19;109530;1253;63857;-87
2023/02/25 08:11:46;;;;;;;12.70;8.20;;;;;;;4.25;83.35;99865.04;109370;1254;72631;-86
2023/02/25 08:14:20;;;;;;;15.50;10.70;;;;;;;4.28;83.31;99860.36;109492;1255;60378;-86
2023/02/25 08:16:48;;;;;;;13.60;8.80;;;;;;;4.31;83.20;99858.83;109538;1254;59988;-86
2023/02/25 08:19:17;;;;;;;12.40;7.90;;;;;;;4.32;83.14;99857.20;109549;1254;73916;-86
2023/02/25 08:21:45;;;;;;;12.40;8.00;;;;;;;4.35;83.17;99857.27;109322;1254;63835;-87
2023/02/25 08:24:14;;;;;;;14.90;7.60;;;;;;;4.35;83.17;99854.80;108656;1258;72603;-89
2023/02/25 08:26:42;;;;;;;11.00;7.00;;;;;;;4.40;83.29;99853.23;106733;1253;62214;-87
2023/02/25 08:29:11;;;;;;;13.30;7.10;;;;;;;4.44;83.06;99855.96;106958;1256;61076;-88
2023/02/25 08:31:41;;;;;;;10.50;6.70;;;;;;;4.48;82.67;99856.64;106578;1256;74801;-88
2023/02/25 08:34:10;;;;;;;16.70;10.00;;;;;;;4.51;82.28;99854.27;106306;1254;63811;-88
2023/02/25 08:37:46;;;;;;;;;;;;;;;;;;;;;
2023/02/25 08:40:39;;;;;;;10.60;6.80;;;;;;;4.52;81.88;99842.13;106341;1259;60548;-88
2023/02/25 08:43:11;;;;;;;13.80;7.50;;;;;;;4.49;81.93;99833.06;106464;1260;61768;-86
2023/02/25 08:45:40;;;;;;;10.20;6.20;;;;;;;4.48;81.83;99829.48;105975;1260;75052;-87
2023/02/25 08:48:08;;;;;;;13.20;6.10;;;;;;;4.48;81.64;99821.88;105588;1265;64078;-87
2023/02/25 08:50:37;;;;;;;11.60;5.90;;;;;;;4.50;82.06;99821.26;106428;1260;74279;-86
2023/02/25 08:53:09;;;;;;;20.10;10.30;;;;;;;4.54;81.94;99823.27;105673;1259;60495;-85
2023/02/25 08:55:38;;;;;;;17.80;10.00;;;;;;;4.62;82.10;99818.61;105553;1260;60332;-86
2023/02/25 08:58:07;;;;;;;15.50;7.60;;;;;;;4.66;82.01;99817.88;105645;1262;73882;-90
2023/02/25 09:00:36;;;;;;;19.40;10.10;;;;;;;4.69;81.60;99810.29;105592;1260;63545;-88
2023/02/25 09:03:07;;;;;;;16.70;7.30;;;;;;;4.75;82.21;99811.58;106080;1258;72632;-83
2023/02/25 09:05:36;;;;;;;17.90;8.60;;;;;;;4.83;81.78;99805.27;107696;1260;61140;-90
2023/02/25 09:08:05;;;;;;;18.10;8.60;;;;;;;4.89;81.77;99803.09;105604;1260;61341;-88
2023/02/25 09:10:36;;;;;;;13.70;7.90;;;;;;;4.90;81.66;99801.45;105574;1262;74876;-87
2023/02/25 09:13:17;;;;;;;15.50;9.90;;;;;;;4.91;81.62;99793.96;105477;1260;64344;-86
2023/02/25 09:15:45;;;;;;;16.60;9.80;;;;;;;4.90;81.46;99787.64;105584;1262;74075;-87
2023/02/25 09:18:14;;;;;;;19.30;9.40;;;;;;;4.89;81.42;99779.52;106139;1258;62032;-86
2023/02/25 09:20:49;;;;;;;13.50;6.80;;;;;;;4.96;81.80;99773.66;106874;1254;61629;-85
2023/02/25 09:23:17;;;;;;;19.40;9.40;;;;;;;5.03;81.88;99772.44;108462;1256;73482;-84
2023/02/25 09:25:46;;;;;;;20.90;9.80;;;;;;;5.12;81.90;99769.52;106080;1258;64789;-88
2023/02/25 09:28:18;;;;;;;18.10;9.20;;;;;;;5.17;81.39;99767.36;105992;1256;73486;-85
2023/02/25 09:30:46;;;;;;;17.20;7.30;;;;;;;5.17;81.47;99764.42;105711;1258;60442;-86
2023/02/25 09:33:15;;;;;;;22.00;11.80;;;;;;;5.17;81.49;99755.27;106310;1256;61298;-87
2023/02/25 09:35:44;;;;;;;19.90;9.90;;;;;;;5.18;82.08;99745.31;105912;1256;73923;-85
2023/02/25 09:38:12;;;;;;;25.40;12.00;;;;;;;5.22;82.14;99743.04;105922;1258;63754;-87
2023/02/25 09:40:45;;;;;;;19.60;8.40;;;;;;;5.26;82.56;99739.02;105773;1256;73714;-85
2023/02/25 09:43:19;;;;;;;15.60;8.20;;;;;;;5.31;82.52;99745.33;106126;1258;61068;-87
2023/02/25 09:45:49;;;;;;;15.10;8.50;;;;;;;5.36;82.25;99733.84;105869;1256;61034;-87
2023/02/25 09:48:24;;;;;;;16.40;9.50;;;;;;;5.43;82.99;99735.37;105792;1257;72998;-85
2023/02/25 09:51:20;;;;;;;15.10;10.20;;;;;;;5.50;82.85;99728.92;105868;1256;63929;-85
2023/02/25 09:54:35;;;;;;;14.20;8.40;;;;;;;5.58;82.58;99715.45;105725;1254;73580;-87
2023/02/25 09:57:03;;;;;;;14.50;7.30;;;;;;;5.68;82.33;99720.83;105684;1256;62213;-84
2023/02/25 09:59:32;;;;;;;12.30;7.80;;;;;;;5.75;82.54;99717.33;105623;1257;61327;-87
2023/02/25 10:02:37;;;;;;;19.00;9.20;;;;;;;5.82;82.33;99716.44;105804;1258;75042;-85
2023/02/25 10:05:15;;;;;;;25.20;11.60;;;;;;;5.96;82.27;99714.82;105357;1260;63166;-85
2023/02/25 10:07:49;;;;;;;16.60;9.00;;;;;;;6.08;82.17;99717.80;105351;1265;73705;-85
2023/02/25 10:10:34;;;;;;;15.00;9.20;;;;;;;6.16;82.05;99717.33;105384;1265;60616;-87
2023/02/25 10:13:16;;;;;;;;;;;;;;;6.22;81.96;99704.00;105398;1259;61189;-87
2023/02/25 10:15:49;;;;;;;20.90;8.60;;;;;;;6.31;81.79;99700.56;105444;1262;75071;-87
2023/02/25 10:18:35;;;;;;;24.20;10.90;;;;;;;6.40;81.59;99705.58;105538;1264;63878;-85
2023/02/25 10:21:22;;;;;;;17.30;8.60;;;;;;;6.50;80.93;99702.78;105434;1264;71855;-86
2023/02/25 10:24:16;;;;;;;15.70;8.10;;;;;;;6.53;80.69;99700.13;105253;1259;61419;-87
2023/02/25 10:26:48;;;;;;;17.40;9.70;;;;;;;6.57;80.19;99693.27;105485;1259;60773;-86
2023/02/25 10:29:27;;;;;;;20.40;9.40;;;;;;;6.62;80.28;99694.91;107285;1259;73869;-84
2023/02/25 10:31:58;;;;;;;23.60;10.60;;;;;;;6.70;80.00;99690.00;105950;1260;63522;-85
2023/02/25 10:34:35;;;;;;;23.70;9.60;;;;;;;6.78;79.80;99683.56;105454;1265;73981;-89
2023/02/25 10:37:04;;;;;;;18.50;7.20;;;;;;;6.88;79.60;99681.61;105279;1259;61056;-86
2023/02/25 10:39:33;;;;;;;14.00;8.60;;;;;;;6.95;79.28;99682.58;105410;1260;61669;-86
2023/02/25 10:42:02;;;;;;;12.10;6.90;;;;;;;7.00;79.10;99675.96;105630;1254;74588;-87
2023/02/25 10:44:30;;;;;;;18.00;8.80;;;;;;;7.06;79.01;99679.27;106173;1256;64783;-87
2023/02/25 10:47:00;;;;;;;14.50;7.70;;;;;;;7.11;78.82;99675.55;106602;1253;74496;-87
2023/02/25 10:49:37;;;;;;;21.30;10.20;;;;;;;7.14;78.61;99680.58;108333;1254;60498;-87
2023/02/25 10:52:16;;;;;;;15.10;8.20;;;;;;;7.11;78.88;99672.92;109327;1252;60204;-86
2023/02/25 10:54:50;;;;;;;16.30;8.80;;;;;;;7.09;79.27;99669.55;108000;1259;74744;-87
2023/02/25 10:57:26;;;;;;;15.10;7.90;;;;;;;7.09;79.64;99664.98;108296;1256;63989;-85
2023/02/25 11:00:25;;;;;;;10.80;7.30;;;;;;;7.14;79.95;99661.28;106632;1254;72696;-87
2023/02/25 11:02:57;;;;;;;13.90;7.10;;;;;;;7.16;80.06;99668.10;106203;1252;61401;-84
2023/02/25 11:05:35;;;;;;;13.60;7.40;;;;;;;7.12;80.56;99670.61;106151;1257;61390;-88
2023/02/25 11:08:07;;;;;;;16.50;9.80;;;;;;;7.08;80.89;99667.87;105914;1252;74633;-87
2023/02/25 11:10:36;;;;;;;17.80;9.50;;;;;;;7.05;81.25;99662.13;105901;1256;64896;-88
2023/02/25 11:13:05;;;;;;;13.40;8.30;;;;;;;7.03;81.63;99658.74;105783;1260;73561;-86
2023/02/25 11:15:35;;;;;;;17.40;8.30;;;;;;;7.03;81.74;99652.15;105754;1256;61262;-88
2023/02/25 11:18:28;;;;;;;15.80;8.70;;;;;;;7.01;81.91;99645.85;105785;1256;61336;-86
2023/02/25 11:21:02;;;;;;;15.80;8.40;;;;;;;7.02;82.32;99644.20;105944;1259;74420;-85
2023/02/25 11:23:38;;;;;;;15.50;8.70;;;;;;;7.00;82.95;99638.09;106265;1258;64811;-87
2023/02/25 11:26:06;;;;;;;23.30;11.00;;;;;;;6.97;83.23;99638.47;106195;1256;72640;-85
2023/02/25 11:28:48;;;;;;;21.60;9.80;;;;;;;6.94;83.52;99639.50;106318;1258;60451;-87
2023/02/25 11:31:22;;;;;;;19.50;9.30;;;;;;;6.95;83.71;99634.61;106679;1256;61631;-86
2023/02/25 11:34:00;;;;;;;19.50;10.10;;;;;;;6.97;83.86;99630.15;106703;1256;74714;-86
2023/02/25 11:36:35;;;;;;;17.50;9.60;;;;;;;7.00;83.80;99631.33;106568;1258;63458;-86
2023/02/25 11:39:17;;;;;;;21.90;12.00;;;;;;;7.03;83.71;99628.36;106339;1254;72606;-88
2023/02/25 11:41:48;;;;;;;21.60;11.10;;;;;;;7.07;83.67;99626.24;106383;1256;62523;-85
2023/02/25 11:44:21;;;;;;;23.00;12.60;;;;;;;7.10;83.60;99629.00;106201;1256;61109;-85
2023/02/25 11:47:02;;;;;;;26.40;13.90;;;;;;;7.12;83.32;99627.85;106466;1254;74813;-83
2023/02/25 11:49:51;;;;;;;15.10;10.00;;;;;;;7.14;83.40;99627.50;106464;1258;63971;-86
2023/02/25 11:52:34;;;;;;;18.10;9.90;;;;;;;7.22;83.43;99621.79;106377;1259;72324;-85